createdAt,value
2022-11-09T00:00:53.724Z,13.30
2022-11-09T00:03:20.884Z,13.30
2022-11-09T00:05:59.027Z,13.30
2022-11-09T00:08:26.610Z,13.20
2022-11-09T00:10:53.733Z,13.10
2022-11-09T00:13:21.205Z,13.20
2022-11-09T00:15:48.176Z,13.30
2022-11-09T00:18:15.052Z,13.20
2022-11-09T00:20:47.332Z,13.20
2022-11-09T00:23:15.792Z,13.20
2022-11-09T00:25:42.833Z,13.30
2022-11-09T00:28:09.583Z,13.20
2022-11-09T00:30:36.327Z,13.30
2022-11-09T00:33:03.086Z,13.20
2022-11-09T00:35:29.915Z,13.30
2022-11-09T00:37:56.742Z,13.30
2022-11-09T00:40:23.563Z,13.30
2022-11-09T00:42:50.305Z,13.30
2022-11-09T00:45:17.707Z,13.40
2022-11-09T00:47:45.093Z,13.40
2022-11-09T00:50:11.841Z,13.40
2022-11-09T00:52:38.661Z,13.30
2022-11-09T00:55:05.780Z,13.30
2022-11-09T00:57:32.541Z,13.40
2022-11-09T00:59:59.285Z,13.40
2022-11-09T01:02:26.077Z,13.50
2022-11-09T01:04:52.815Z,13.50
2022-11-09T01:07:19.642Z,13.50
2022-11-09T01:09:46.433Z,13.50
2022-11-09T01:12:13.241Z,13.50
2022-11-09T01:14:40.029Z,13.50
2022-11-09T01:17:07.244Z,13.40
2022-11-09T01:19:33.993Z,13.40
2022-11-09T01:22:00.733Z,13.30
2022-11-09T01:24:27.521Z,13.30
2022-11-09T01:26:54.265Z,13.20
2022-11-09T01:29:21.009Z,13.20
2022-11-09T01:31:48.945Z,13.20
2022-11-09T01:34:17.452Z,13.20
2022-11-09T01:36:44.336Z,13.20
2022-11-09T01:39:11.400Z,13.20
2022-11-09T01:41:38.211Z,13.20
2022-11-09T01:44:13.783Z,13.10
2022-11-09T01:46:51.933Z,13.10
2022-11-09T01:49:37.598Z,13.10
2022-11-09T01:52:25.227Z,13.00
2022-11-09T01:54:57.324Z,13.00
2022-11-09T01:57:29.339Z,13.00
2022-11-09T02:00:07.418Z,13.00
2022-11-09T02:02:35.992Z,13.00
2022-11-09T02:05:14.130Z,13.00
2022-11-09T02:07:42.561Z,13.00
2022-11-09T02:10:31.516Z,12.90
2022-11-09T02:12:59.519Z,12.90
2022-11-09T02:15:27.025Z,12.90
2022-11-09T02:17:55.361Z,12.90
2022-11-09T02:20:23.495Z,12.80
2022-11-09T02:22:51.014Z,12.80
2022-11-09T02:25:18.011Z,12.80
2022-11-09T02:27:45.673Z,12.80
2022-11-09T02:30:14.497Z,12.80
2022-11-09T02:32:41.303Z,12.90
2022-11-09T02:35:09.596Z,12.90
2022-11-09T02:37:42.104Z,12.90
2022-11-09T02:40:13.921Z,12.90
2022-11-09T02:42:40.895Z,12.90
2022-11-09T02:45:08.299Z,12.80
2022-11-09T02:47:35.028Z,12.80
2022-11-09T02:50:01.819Z,12.90
2022-11-09T02:52:28.572Z,12.80
2022-11-09T02:54:55.329Z,12.70
2022-11-09T02:57:22.054Z,12.70
2022-11-09T02:59:48.886Z,12.80
2022-11-09T03:02:15.650Z,12.80
2022-11-09T03:04:42.416Z,12.70
2022-11-09T03:07:09.258Z,12.70
2022-11-09T03:09:36.239Z,12.70
2022-11-09T03:12:22.997Z,12.70
2022-11-09T03:14:49.761Z,12.80
2022-11-09T03:17:17.582Z,12.80
2022-11-09T03:19:45.263Z,12.70
2022-11-09T03:22:12.004Z,12.70
2022-11-09T03:24:38.833Z,12.80
2022-11-09T03:27:05.695Z,12.70
2022-11-09T03:29:32.487Z,12.70
2022-11-09T03:31:59.656Z,12.70
2022-11-09T03:34:26.408Z,12.80
2022-11-09T03:36:53.203Z,12.80
2022-11-09T03:39:19.994Z,12.90
2022-11-09T03:41:46.802Z,12.90
2022-11-09T03:44:13.617Z,12.90
2022-11-09T03:46:40.444Z,12.90
2022-11-09T03:49:07.406Z,12.90
2022-11-09T03:51:34.277Z,12.90
2022-11-09T03:54:01.060Z,12.90
2022-11-09T03:56:28.264Z,12.90
2022-11-09T03:58:55.182Z,12.90
2022-11-09T04:01:22.395Z,12.80
2022-11-09T04:03:49.147Z,12.80
2022-11-09T04:06:15.891Z,12.90
2022-11-09T04:08:46.999Z,12.90
2022-11-09T04:11:16.859Z,12.90
2022-11-09T04:13:43.670Z,12.90
2022-11-09T04:16:10.495Z,12.90
2022-11-09T04:18:37.238Z,12.90
2022-11-09T04:21:03.966Z,12.90
2022-11-09T04:23:30.708Z,12.90
2022-11-09T04:25:59.591Z,12.80
2022-11-09T04:28:26.768Z,12.80
2022-11-09T04:30:53.604Z,12.90
2022-11-09T04:33:20.870Z,12.90
2022-11-09T04:35:47.938Z,12.90
2022-11-09T04:38:15.218Z,12.70
2022-11-09T04:40:42.502Z,12.80
2022-11-09T04:43:13.174Z,12.70
2022-11-09T04:45:40.515Z,12.80
2022-11-09T04:48:09.802Z,12.80
2022-11-09T04:50:36.670Z,12.80
2022-11-09T04:53:12.281Z,12.80
2022-11-09T04:55:40.325Z,12.80
2022-11-09T04:58:07.636Z,12.90
2022-11-09T05:00:35.341Z,12.80
2022-11-09T05:03:03.416Z,12.80
2022-11-09T05:05:35.580Z,12.70
2022-11-09T05:08:03.438Z,12.70
2022-11-09T05:10:30.597Z,12.70
2022-11-09T05:12:58.897Z,12.70
2022-11-09T05:15:26.088Z,12.70
2022-11-09T05:17:53.078Z,12.60
2022-11-09T05:20:20.006Z,12.60
2022-11-09T05:23:05.732Z,12.60
2022-11-09T05:25:32.593Z,12.50
2022-11-09T05:27:59.403Z,12.60
2022-11-09T05:30:26.295Z,12.60
2022-11-09T05:32:53.062Z,12.60
2022-11-09T05:35:20.214Z,12.50
2022-11-09T05:37:48.627Z,12.60
2022-11-09T05:40:17.449Z,12.70
2022-11-09T05:42:44.794Z,12.60
2022-11-09T05:45:41.612Z,12.70
2022-11-09T05:48:04.204Z,12.80
2022-11-09T05:50:31.004Z,12.80
2022-11-09T05:53:02.068Z,12.80
2022-11-09T05:55:29.007Z,12.80
2022-11-09T05:57:56.094Z,12.80
2022-11-09T06:00:23.139Z,12.80
2022-11-09T06:02:50.082Z,12.80
2022-11-09T06:05:17.533Z,12.80
2022-11-09T06:07:44.295Z,12.80
2022-11-09T06:10:11.670Z,12.80
2022-11-09T06:12:38.477Z,12.70
2022-11-09T06:15:05.921Z,12.70
2022-11-09T06:17:32.785Z,12.70
2022-11-09T06:19:59.549Z,12.70
2022-11-09T06:22:26.284Z,12.60
2022-11-09T06:24:53.029Z,12.50
2022-11-09T06:27:19.875Z,12.70
2022-11-09T06:29:46.770Z,12.60
2022-11-09T06:32:13.610Z,12.60
2022-11-09T06:34:40.336Z,12.60
2022-11-09T06:37:07.107Z,12.60
2022-11-09T06:39:33.888Z,12.50
2022-11-09T06:42:01.290Z,12.60
2022-11-09T06:44:28.225Z,12.60
2022-11-09T06:46:56.098Z,12.60
2022-11-09T06:49:22.838Z,12.70
2022-11-09T06:51:49.654Z,12.60
2022-11-09T06:54:16.408Z,12.70
2022-11-09T06:56:43.258Z,12.80
2022-11-09T06:59:10.169Z,12.90
2022-11-09T07:01:37.653Z,12.90
2022-11-09T07:04:04.983Z,13.00
2022-11-09T07:06:31.929Z,13.00
2022-11-09T07:08:58.837Z,13.10
2022-11-09T07:11:25.672Z,13.10
2022-11-09T07:13:57.027Z,13.10
2022-11-09T07:16:24.401Z,13.10
2022-11-09T07:18:51.162Z,13.10
2022-11-09T07:21:18.292Z,13.10
2022-11-09T07:23:47.942Z,13.10
2022-11-09T07:26:15.906Z,13.00
2022-11-09T07:28:43.131Z,13.00
2022-11-09T07:31:10.524Z,13.00
2022-11-09T07:33:37.452Z,13.00
2022-11-09T07:36:05.223Z,13.10
2022-11-09T07:38:32.582Z,13.10
2022-11-09T07:41:00.665Z,13.00
2022-11-09T07:43:28.571Z,13.00
2022-11-09T07:45:55.867Z,13.10
2022-11-09T07:48:22.669Z,13.10
2022-11-09T07:50:49.750Z,13.10
2022-11-09T07:53:17.188Z,13.10
2022-11-09T07:55:44.528Z,13.10
2022-11-09T07:58:15.708Z,13.10
2022-11-09T08:00:43.871Z,13.00
2022-11-09T08:03:10.694Z,13.10
2022-11-09T08:05:38.785Z,13.20
2022-11-09T08:08:08.557Z,13.20
2022-11-09T08:10:36.286Z,13.30
2022-11-09T08:13:07.154Z,13.30
2022-11-09T08:15:35.816Z,13.40
2022-11-09T08:18:05.505Z,13.40
2022-11-09T08:20:33.287Z,13.40
2022-11-09T08:23:04.089Z,13.40
2022-11-09T08:25:34.199Z,13.50
2022-11-09T08:28:01.052Z,13.40
2022-11-09T08:30:27.875Z,13.40
2022-11-09T08:32:54.692Z,13.50
2022-11-09T08:35:23.365Z,13.50
2022-11-09T08:37:52.011Z,13.60
2022-11-09T08:40:24.548Z,13.50
2022-11-09T08:42:52.426Z,13.60
2022-11-09T08:45:20.038Z,13.50
2022-11-09T08:47:47.189Z,13.50
2022-11-09T08:50:15.536Z,13.50
2022-11-09T08:52:42.470Z,13.50
2022-11-09T08:55:09.499Z,13.60
2022-11-09T08:57:36.597Z,13.60
2022-11-09T09:00:04.645Z,13.70
2022-11-09T09:02:31.656Z,13.90
2022-11-09T09:04:58.397Z,14.40
2022-11-09T09:07:25.305Z,15.20
2022-11-09T09:09:52.147Z,15.50
2022-11-09T09:12:19.056Z,15.40
2022-11-09T09:14:45.951Z,15.20
2022-11-09T09:17:13.083Z,15.10
2022-11-09T09:19:39.890Z,14.90
2022-11-09T09:22:06.722Z,14.80
2022-11-09T09:24:33.662Z,14.70
2022-11-09T09:27:00.471Z,14.80
2022-11-09T09:29:27.284Z,14.90
2022-11-09T09:31:54.042Z,15.20
2022-11-09T09:34:20.802Z,15.50
2022-11-09T09:36:48.391Z,15.80
2022-11-09T09:39:15.592Z,15.60
2022-11-09T09:41:57.845Z,15.50
2022-11-09T09:44:43.501Z,15.30
2022-11-09T09:47:34.067Z,15.30
2022-11-09T09:50:22.759Z,15.50
2022-11-09T09:56:00.068Z,15.60
2022-11-09T09:58:28.974Z,15.40
2022-11-09T10:01:16.127Z,15.30
2022-11-09T10:03:43.244Z,15.60
2022-11-09T10:06:59.103Z,15.90
2022-11-09T10:09:47.539Z,16.20
2022-11-09T10:12:46.165Z,16.40
2022-11-09T10:15:18.866Z,16.40
2022-11-09T10:17:45.630Z,16.20
2022-11-09T10:20:35.994Z,15.90
2022-11-09T10:23:39.695Z,16.10
2022-11-09T10:26:21.603Z,16.30
2022-11-09T10:29:16.863Z,16.30
2022-11-09T10:31:46.537Z,16.20
2022-11-09T10:34:27.718Z,16.10
2022-11-09T10:37:17.259Z,16.00
2022-11-09T10:39:56.550Z,15.80
2022-11-09T10:42:23.324Z,15.70
2022-11-09T10:44:50.152Z,15.60
2022-11-09T10:47:18.162Z,15.70
2022-11-09T10:49:45.613Z,15.80
2022-11-09T10:52:44.146Z,15.80
2022-11-09T10:55:25.643Z,15.90
2022-11-09T10:58:05.551Z,15.80
2022-11-09T11:00:33.804Z,15.60
2022-11-09T11:03:16.676Z,15.50
2022-11-09T11:05:43.515Z,15.40
2022-11-09T11:08:38.048Z,15.20
2022-11-09T11:11:32.698Z,15.20
2022-11-09T11:14:19.887Z,15.10
2022-11-09T11:19:46.102Z,15.30
2022-11-09T11:22:13.034Z,15.50
2022-11-09T11:24:58.500Z,15.60
2022-11-09T11:27:46.456Z,15.70
2022-11-09T11:30:28.472Z,15.90
2022-11-09T11:32:58.590Z,16.00
2022-11-09T11:35:40.839Z,15.90
2022-11-09T11:38:33.539Z,15.90
2022-11-09T11:41:00.671Z,15.60
2022-11-09T11:43:41.976Z,15.50
2022-11-09T11:46:14.607Z,15.40
2022-11-09T11:49:04.692Z,15.30
2022-11-09T11:51:43.487Z,15.30
2022-11-09T11:54:51.356Z,15.40
2022-11-09T11:57:34.271Z,15.50
2022-11-09T12:00:10.185Z,15.40
2022-11-09T12:02:42.810Z,15.50
2022-11-09T12:05:28.259Z,15.60
2022-11-09T12:08:08.143Z,15.40
2022-11-09T12:11:02.494Z,15.40
2022-11-09T12:13:49.791Z,15.40
2022-11-09T12:16:22.667Z,15.40
2022-11-09T12:19:35.229Z,15.40
2022-11-09T12:22:18.094Z,15.40
2022-11-09T12:25:15.808Z,15.40
2022-11-09T12:27:45.697Z,15.40
2022-11-09T12:30:19.163Z,15.40
2022-11-09T12:33:03.687Z,15.30
2022-11-09T12:35:43.622Z,15.40
2022-11-09T12:38:16.486Z,15.40
2022-11-09T12:40:58.715Z,15.40
2022-11-09T12:43:39.625Z,15.50
2022-11-09T12:46:07.432Z,15.60
2022-11-09T12:48:35.606Z,15.60
2022-11-09T12:51:05.171Z,15.60
2022-11-09T12:53:37.921Z,15.60
2022-11-09T12:56:10.248Z,15.60
2022-11-09T12:58:38.920Z,15.70
2022-11-09T13:01:10.960Z,15.60
2022-11-09T13:03:56.248Z,15.50
2022-11-09T13:06:31.217Z,15.50
2022-11-09T13:09:04.049Z,15.40
2022-11-09T13:11:43.516Z,15.30
2022-11-09T13:14:22.322Z,15.30
2022-11-09T13:16:49.885Z,15.20
2022-11-09T13:19:35.182Z,15.20
2022-11-09T13:22:28.011Z,15.20
2022-11-09T13:25:03.585Z,15.20
2022-11-09T13:27:37.720Z,15.20
2022-11-09T13:30:30.280Z,15.20
2022-11-09T13:33:06.242Z,15.10
2022-11-09T13:35:41.999Z,15.10
2022-11-09T13:38:23.372Z,15.10
2022-11-09T13:40:55.452Z,15.00
2022-11-09T13:43:30.597Z,14.90
2022-11-09T13:45:59.975Z,15.00
2022-11-09T13:48:48.937Z,15.00
2022-11-09T13:51:35.207Z,15.10
2022-11-09T13:54:04.723Z,15.10
2022-11-09T13:56:37.512Z,15.20
2022-11-09T13:59:29.758Z,15.10
2022-11-09T14:01:59.559Z,15.00
2022-11-09T14:04:26.394Z,15.00
2022-11-09T14:07:17.934Z,15.00
2022-11-09T14:09:52.874Z,14.90
2022-11-09T14:12:26.269Z,14.90
2022-11-09T14:15:19.171Z,14.90
2022-11-09T14:18:15.682Z,14.80
2022-11-09T14:21:02.749Z,14.70
2022-11-09T14:23:32.163Z,14.70
2022-11-09T14:26:06.483Z,14.60
2022-11-09T14:28:34.671Z,14.50
2022-11-09T14:31:02.217Z,14.50
2022-11-09T14:33:30.385Z,14.50
2022-11-09T14:35:59.177Z,14.50
2022-11-09T14:38:44.058Z,14.50
2022-11-09T14:41:25.150Z,14.40
2022-11-09T14:43:54.643Z,14.40
2022-11-09T14:46:24.998Z,14.40
2022-11-09T14:48:52.734Z,14.50
2022-11-09T14:51:21.081Z,14.40
2022-11-09T14:53:49.727Z,14.30
2022-11-09T14:56:19.543Z,14.30
2022-11-09T14:58:47.556Z,14.30
2022-11-09T15:01:23.936Z,14.30
2022-11-09T15:04:20.080Z,14.30
2022-11-09T15:06:52.607Z,14.40
2022-11-09T15:09:30.708Z,14.30
2022-11-09T15:11:57.617Z,14.20
2022-11-09T15:14:31.214Z,14.20
2022-11-09T15:17:17.258Z,14.20
2022-11-09T15:20:00.298Z,14.20
2022-11-09T15:22:49.300Z,14.20
2022-11-09T15:25:42.347Z,14.10
2022-11-09T15:28:09.083Z,14.10
2022-11-09T15:30:40.815Z,14.00
2022-11-09T15:33:18.466Z,14.00
2022-11-09T15:35:53.942Z,14.20
2022-11-09T15:39:05.960Z,14.20
2022-11-09T15:41:32.807Z,14.20
2022-11-09T15:43:59.748Z,14.20
2022-11-09T15:46:33.046Z,14.10
2022-11-09T15:49:14.937Z,14.00
2022-11-09T15:51:42.309Z,13.90
2022-11-09T15:54:09.456Z,13.80
2022-11-09T15:56:37.136Z,13.90
2022-11-09T15:59:04.569Z,13.80
2022-11-09T16:01:34.450Z,13.70
2022-11-09T16:04:01.578Z,13.60
2022-11-09T16:06:29.451Z,13.60
2022-11-09T16:08:56.604Z,13.60
2022-11-09T16:11:23.491Z,13.50
2022-11-09T16:13:50.377Z,13.50
2022-11-09T16:16:17.316Z,13.60
2022-11-09T16:18:44.205Z,13.60
2022-11-09T16:21:13.252Z,13.60
2022-11-09T16:23:40.245Z,13.60
2022-11-09T16:26:12.809Z,13.70
2022-11-09T16:28:40.293Z,13.60
2022-11-09T16:31:08.028Z,13.60
2022-11-09T16:33:35.329Z,13.60
2022-11-09T16:36:23.274Z,13.60
2022-11-09T16:38:54.140Z,13.50
2022-11-09T16:41:21.895Z,13.50
2022-11-09T16:43:53.365Z,13.60
2022-11-09T16:46:24.357Z,13.60
2022-11-09T16:48:52.721Z,13.50
2022-11-09T16:51:20.000Z,13.50
2022-11-09T16:53:46.861Z,13.60
2022-11-09T16:56:14.210Z,13.70
2022-11-09T16:58:41.067Z,13.70
2022-11-09T17:01:11.888Z,13.70
2022-11-09T17:03:39.697Z,13.70
2022-11-09T17:06:11.040Z,13.60
2022-11-09T17:08:41.797Z,13.50
2022-11-09T17:11:10.511Z,13.50
2022-11-09T17:13:38.128Z,13.50
2022-11-09T17:16:10.708Z,13.60
2022-11-09T17:18:38.126Z,13.50
2022-11-09T17:21:10.612Z,13.40
2022-11-09T17:23:38.465Z,13.50
2022-11-09T17:26:07.058Z,13.60
2022-11-09T17:28:38.751Z,13.50
2022-11-09T17:31:10.642Z,13.50
2022-11-09T17:33:37.501Z,13.60
2022-11-09T17:36:07.119Z,13.60
2022-11-09T17:38:34.737Z,13.50
2022-11-09T17:41:06.869Z,13.60
2022-11-09T17:43:35.482Z,13.50
2022-11-09T17:46:06.819Z,13.30
2022-11-09T17:48:35.608Z,13.10
2022-11-09T17:51:02.893Z,12.80
2022-11-09T17:53:30.669Z,13.40
2022-11-09T17:55:58.311Z,12.60
2022-11-09T17:58:25.613Z,12.40
2022-11-09T18:00:52.555Z,12.20
2022-11-09T18:03:19.586Z,12.20
2022-11-09T18:05:46.444Z,12.10
2022-11-09T18:08:14.811Z,12.10
2022-11-09T18:10:44.044Z,12.00
2022-11-09T18:13:11.825Z,11.90
2022-11-09T18:15:40.115Z,11.90
2022-11-09T18:18:07.432Z,11.90
2022-11-09T18:20:37.257Z,11.90
2022-11-09T18:23:04.074Z,11.80
2022-11-09T18:25:31.330Z,11.70
2022-11-09T18:27:58.191Z,11.70
2022-11-09T18:30:25.106Z,11.60
2022-11-09T18:32:51.933Z,11.70
2022-11-09T18:35:18.856Z,11.60
2022-11-09T18:37:48.405Z,11.60
2022-11-09T18:40:16.385Z,11.60
2022-11-09T18:42:43.239Z,11.60
2022-11-09T18:45:10.599Z,11.60
2022-11-09T18:47:37.483Z,11.60
2022-11-09T18:50:05.038Z,11.50
2022-11-09T18:52:33.336Z,11.60
2022-11-09T18:55:00.346Z,11.70
2022-11-09T18:57:27.229Z,11.70
2022-11-09T18:59:54.081Z,11.70
2022-11-09T19:02:21.460Z,11.80
2022-11-09T19:04:48.538Z,11.80
2022-11-09T19:07:15.673Z,11.80
2022-11-09T19:09:42.733Z,11.90
2022-11-09T19:12:10.967Z,11.90
2022-11-09T19:14:40.987Z,11.90
2022-11-09T19:17:13.044Z,12.00
2022-11-09T19:19:40.641Z,12.00
2022-11-09T19:22:15.125Z,12.00
2022-11-09T19:24:42.094Z,12.00
2022-11-09T19:27:09.778Z,12.00
2022-11-09T19:29:36.641Z,12.10
2022-11-09T19:32:04.836Z,12.10
2022-11-09T19:34:31.846Z,12.40
2022-11-09T19:36:58.936Z,12.00
2022-11-09T19:39:30.983Z,12.10
2022-11-09T19:42:00.356Z,12.10
2022-11-09T19:44:27.173Z,12.00
2022-11-09T19:46:54.198Z,12.00
2022-11-09T19:49:21.089Z,12.10
2022-11-09T19:51:47.885Z,12.00
2022-11-09T19:54:15.528Z,11.90
2022-11-09T19:56:42.475Z,11.90
2022-11-09T19:59:14.171Z,11.80
2022-11-09T20:01:41.402Z,11.90
2022-11-09T20:04:10.612Z,11.80
2022-11-09T20:06:40.378Z,11.90
2022-11-09T20:09:07.315Z,12.00
2022-11-09T20:11:52.990Z,12.00
2022-11-09T20:14:20.538Z,12.00
2022-11-09T20:16:48.466Z,11.90
2022-11-09T20:19:15.383Z,11.90
2022-11-09T20:21:42.733Z,11.90
2022-11-09T20:24:12.223Z,12.00
2022-11-09T20:26:40.338Z,12.00
2022-11-09T20:29:07.392Z,11.90
2022-11-09T20:31:34.260Z,11.90
2022-11-09T20:34:02.411Z,11.90
2022-11-09T20:36:29.337Z,11.90
2022-11-09T20:38:56.393Z,11.90
2022-11-09T20:41:25.605Z,11.90
2022-11-09T20:43:53.204Z,12.00
2022-11-09T20:46:22.513Z,12.00
2022-11-09T20:48:55.320Z,11.90
2022-11-09T20:51:23.757Z,11.90
2022-11-09T20:53:51.212Z,11.90
2022-11-09T20:56:19.491Z,12.00
2022-11-09T20:58:47.194Z,11.90
2022-11-09T21:01:24.862Z,11.90
2022-11-09T21:03:52.954Z,11.90
2022-11-09T21:06:21.190Z,11.80
2022-11-09T21:08:51.204Z,11.90
2022-11-09T21:11:19.242Z,12.00
2022-11-09T21:13:50.992Z,12.00
2022-11-09T21:16:19.265Z,12.10
2022-11-09T21:18:46.783Z,12.10
2022-11-09T21:21:18.995Z,12.00
2022-11-09T21:24:04.681Z,12.00
2022-11-09T21:26:50.352Z,12.00
2022-11-09T21:29:40.998Z,11.90
2022-11-09T21:32:08.995Z,11.90
2022-11-09T21:34:37.292Z,11.80
2022-11-09T21:37:05.357Z,11.70
2022-11-09T21:39:32.757Z,11.80
2022-11-09T21:42:00.175Z,11.70
2022-11-09T21:44:31.782Z,11.70
2022-11-09T21:46:59.242Z,11.80
2022-11-09T21:49:26.192Z,11.80
2022-11-09T21:51:53.262Z,11.70
2022-11-09T21:54:20.465Z,11.80
2022-11-09T21:56:48.191Z,11.80
2022-11-09T21:59:15.126Z,11.70
2022-11-09T22:01:42.395Z,11.60
2022-11-09T22:04:10.163Z,11.50
2022-11-09T22:06:39.165Z,11.50
2022-11-09T22:09:07.529Z,11.40
2022-11-09T22:11:53.106Z,11.40
2022-11-09T22:14:39.322Z,11.40
2022-11-09T22:17:08.683Z,11.40
2022-11-09T22:19:56.144Z,11.30
2022-11-09T22:22:23.628Z,11.30
2022-11-09T22:24:50.552Z,11.30
2022-11-09T22:27:17.414Z,11.30
2022-11-09T22:29:44.195Z,11.20
2022-11-09T22:32:11.026Z,11.10
2022-11-09T22:34:37.912Z,11.10
2022-11-09T22:37:04.741Z,11.10
2022-11-09T22:39:31.851Z,11.00
2022-11-09T22:41:58.706Z,11.10
2022-11-09T22:44:25.581Z,11.10
2022-11-09T22:46:52.477Z,11.10
2022-11-09T22:49:19.429Z,11.00
2022-11-09T22:51:46.337Z,11.00
2022-11-09T22:54:13.147Z,11.00
2022-11-09T22:56:40.139Z,11.10
2022-11-09T22:59:07.726Z,11.00
2022-11-09T23:01:34.579Z,11.00
2022-11-09T23:04:01.518Z,10.90
2022-11-09T23:06:28.481Z,10.90
2022-11-09T23:08:55.452Z,10.80
2022-11-09T23:11:23.744Z,10.90
2022-11-09T23:13:52.943Z,10.90
2022-11-09T23:16:20.660Z,10.80
2022-11-09T23:18:54.076Z,10.70
2022-11-09T23:21:32.800Z,10.60
2022-11-09T23:24:02.175Z,10.50
2022-11-09T23:26:29.768Z,10.60
2022-11-09T23:28:56.930Z,10.60
2022-11-09T23:31:24.637Z,10.60
2022-11-09T23:33:56.969Z,10.50
2022-11-09T23:36:25.731Z,10.50
2022-11-09T23:38:52.938Z,10.40
2022-11-09T23:41:20.124Z,10.50
2022-11-09T23:43:49.872Z,10.40
2022-11-09T23:46:17.892Z,10.40
2022-11-09T23:48:45.320Z,10.50
2022-11-09T23:51:25.989Z,10.60
2022-11-09T23:53:52.860Z,10.60
2022-11-09T23:56:30.606Z,10.60
2022-11-09T23:58:57.408Z,10.60
